Terminal Aerodrome Forecast
Issued by NWS Boston, MA

Current Version | Previous Version | Text Only | Print | Product List | Glossary On
Versions: 1 2 3 4 5 6 7 8 9 10 11 12 13 14 15 16 17 18 19 20 21 22 23 24
000 FTUS41 KBOX 261131 TAFBOS TAF KBOS 261131Z 2612/2718 01010KT 6SM -RA BR OVC007 FM261900 32010G18KT P6SM VCSH OVC008 FM262200 33010KT P6SM OVC008 FM270300 34005KT P6SM OVC030 FM271500 03006KT P6SM BKN025 FM271700 07006KT P6SM BKN030=

USA.gov is the U.S. government's official web portal to all federal, state and local government web resources and services.